createdAt,value
2022-08-17T00:01:28.790Z,77.96
2022-08-17T00:04:34.169Z,78.50
2022-08-17T00:07:36.757Z,78.75
2022-08-17T00:10:42.187Z,78.65
2022-08-17T00:13:48.590Z,78.53
2022-08-17T00:16:57.597Z,78.80
2022-08-17T00:20:00.676Z,78.78
2022-08-17T00:23:06.051Z,78.66
2022-08-17T00:26:08.968Z,78.68
2022-08-17T00:29:14.929Z,78.95
2022-08-17T00:33:12.432Z,79.15
2022-08-17T00:35:47.168Z,78.94
2022-08-17T00:38:50.692Z,78.91
2022-08-17T00:41:53.496Z,78.84
2022-08-17T00:44:56.043Z,78.54
2022-08-17T00:47:58.869Z,78.90
2022-08-17T00:51:03.445Z,79.06
2022-08-17T00:54:13.401Z,79.22
2022-08-17T00:57:20.836Z,79.20
2022-08-17T01:00:28.225Z,79.02
2022-08-17T01:03:31.408Z,78.89
2022-08-17T01:06:34.544Z,79.04
2022-08-17T01:09:37.331Z,79.40
2022-08-17T01:12:40.253Z,79.44
2022-08-17T01:15:54.132Z,79.78
2022-08-17T01:18:59.725Z,79.61
2022-08-17T01:22:16.628Z,79.85
2022-08-17T01:25:20.810Z,80.18
2022-08-17T01:28:36.432Z,80.20
2022-08-17T01:31:51.423Z,80.10
2022-08-17T01:34:55.448Z,79.91
2022-08-17T01:37:58.386Z,80.57
2022-08-17T01:41:04.794Z,80.53
2022-08-17T01:44:08.401Z,80.48
2022-08-17T01:47:10.884Z,81.27
2022-08-17T01:50:17.607Z,81.03
2022-08-17T01:53:29.444Z,80.50
2022-08-17T01:56:34.478Z,80.73
2022-08-17T01:59:37.187Z,80.82
2022-08-17T02:02:40.818Z,81.01
2022-08-17T02:05:43.623Z,80.59
2022-08-17T02:09:01.909Z,80.65
2022-08-17T02:12:39.377Z,80.63
2022-08-17T02:15:30.131Z,80.55
2022-08-17T02:18:33.177Z,80.71
2022-08-17T02:21:37.426Z,80.57
2022-08-17T02:24:58.297Z,80.22
2022-08-17T02:28:03.861Z,79.87
2022-08-17T02:31:09.665Z,80.02
2022-08-17T02:34:12.702Z,80.09
2022-08-17T02:37:17.864Z,80.17
2022-08-17T02:40:36.397Z,80.44
2022-08-17T02:43:39.761Z,80.82
2022-08-17T02:46:42.297Z,81.01
2022-08-17T02:49:54.287Z,80.85
2022-08-17T02:53:01.725Z,81.06
2022-08-17T02:56:05.630Z,81.12
2022-08-17T02:59:08.375Z,81.10
2022-08-17T03:02:12.179Z,80.58
2022-08-17T03:05:18.330Z,80.47
2022-08-17T03:08:21.200Z,80.73
2022-08-17T03:11:23.754Z,80.75
2022-08-17T03:14:26.638Z,80.83
2022-08-17T03:17:29.204Z,81.11
2022-08-17T03:20:36.259Z,81.75
2022-08-17T03:23:42.257Z,81.93
2022-08-17T03:26:45.103Z,81.97
2022-08-17T03:29:47.670Z,81.85
2022-08-17T03:32:52.826Z,81.78
2022-08-17T03:35:55.857Z,81.78
2022-08-17T03:38:58.743Z,82.00
2022-08-17T03:42:09.116Z,82.09
2022-08-17T03:45:50.671Z,82.52
2022-08-17T03:49:15.135Z,82.46
2022-08-17T03:52:36.478Z,82.71
2022-08-17T03:55:57.418Z,82.60
2022-08-17T03:59:00.282Z,83.06
2022-08-17T04:02:27.401Z,83.17
2022-08-17T04:05:30.335Z,83.38
2022-08-17T04:08:37.206Z,83.30
2022-08-17T04:11:40.171Z,83.41
2022-08-17T04:14:52.098Z,83.52
2022-08-17T04:17:57.113Z,83.67
2022-08-17T04:21:02.488Z,83.72
2022-08-17T04:24:05.835Z,84.04
2022-08-17T04:27:08.480Z,84.06
2022-08-17T04:30:11.792Z,83.94
2022-08-17T04:33:19.281Z,83.89
2022-08-17T04:36:22.670Z,83.94
2022-08-17T04:39:26.317Z,83.78
2022-08-17T04:42:29.159Z,84.10
2022-08-17T04:45:32.126Z,84.00
2022-08-17T04:48:38.524Z,83.77
2022-08-17T04:51:54.676Z,84.05
2022-08-17T04:55:04.225Z,84.33
2022-08-17T04:58:07.473Z,84.38
2022-08-17T05:01:10.534Z,84.25
2022-08-17T05:04:34.603Z,84.13
2022-08-17T05:07:38.101Z,83.54
2022-08-17T05:10:45.457Z,83.28
2022-08-17T05:13:50.300Z,82.83
2022-08-17T05:16:53.033Z,82.27
2022-08-17T05:19:55.949Z,81.59
2022-08-17T05:23:00.974Z,81.68
2022-08-17T05:26:04.128Z,81.29
2022-08-17T05:29:09.570Z,80.84
2022-08-17T05:32:39.220Z,80.29
2022-08-17T05:35:38.522Z,79.97
2022-08-17T05:38:41.866Z,79.32
2022-08-17T05:41:46.694Z,78.38
2022-08-17T05:44:49.606Z,77.33
2022-08-17T05:47:52.191Z,76.26
2022-08-17T05:51:25.960Z,76.20
2022-08-17T05:54:49.858Z,75.40
2022-08-17T05:58:11.312Z,73.44
2022-08-17T06:01:17.068Z,71.79
2022-08-17T06:04:38.387Z,70.54
2022-08-17T06:07:43.930Z,69.29
2022-08-17T06:11:13.013Z,69.03
2022-08-17T06:14:24.794Z,68.95
2022-08-17T06:17:28.595Z,69.22
2022-08-17T06:20:59.262Z,69.72
2022-08-17T06:24:37.667Z,70.20
2022-08-17T06:27:46.547Z,69.78
2022-08-17T06:30:59.484Z,69.47
2022-08-17T06:34:06.655Z,69.06
2022-08-17T06:37:12.638Z,68.38
2022-08-17T06:40:26.514Z,67.27
2022-08-17T06:43:45.078Z,66.38
2022-08-17T06:47:00.240Z,65.87
2022-08-17T06:50:20.600Z,65.11
2022-08-17T06:53:38.307Z,63.41
2022-08-17T06:57:07.165Z,63.13
2022-08-17T07:00:22.299Z,61.28
2022-08-17T07:03:54.851Z,60.55
2022-08-17T07:07:01.694Z,59.72
2022-08-17T07:10:06.207Z,57.97
2022-08-17T07:13:25.462Z,58.69
2022-08-17T07:16:33.050Z,56.05
2022-08-17T07:19:40.581Z,56.33
2022-08-17T07:22:58.220Z,56.04
2022-08-17T07:26:07.635Z,55.50
2022-08-17T07:29:13.527Z,54.93
2022-08-17T07:32:19.780Z,54.79
2022-08-17T07:35:37.739Z,54.74
2022-08-17T07:38:57.301Z,51.95
2022-08-17T07:42:04.441Z,51.64
2022-08-17T07:45:27.885Z,51.72
2022-08-17T07:48:36.049Z,49.05
2022-08-17T07:51:43.294Z,49.27
2022-08-17T07:54:46.085Z,48.00
2022-08-17T07:57:56.876Z,46.66
2022-08-17T08:01:09.885Z,46.44
2022-08-17T08:04:43.149Z,47.70
2022-08-17T08:07:56.176Z,47.27
2022-08-17T08:11:00.880Z,46.35
2022-08-17T08:14:31.074Z,46.68
2022-08-17T08:17:36.759Z,46.52
2022-08-17T08:20:53.881Z,44.13
2022-08-17T08:24:16.501Z,44.30
2022-08-17T08:27:39.251Z,42.81
2022-08-17T08:30:47.164Z,43.52
2022-08-17T08:33:54.988Z,43.68
2022-08-17T08:37:20.620Z,42.05
2022-08-17T08:40:50.356Z,41.84
2022-08-17T08:44:07.520Z,41.17
2022-08-17T08:47:19.321Z,40.32
2022-08-17T08:50:38.776Z,39.82
2022-08-17T08:54:03.466Z,40.55
2022-08-17T08:57:26.862Z,38.75
2022-08-17T09:00:41.513Z,39.94
2022-08-17T09:04:11.821Z,39.42
2022-08-17T09:07:25.205Z,40.32
2022-08-17T09:10:58.364Z,39.38
2022-08-17T09:14:09.653Z,39.10
2022-08-17T09:17:35.780Z,39.65
2022-08-17T09:20:55.810Z,37.91
2022-08-17T09:24:09.847Z,38.59
2022-08-17T09:27:18.967Z,37.57
2022-08-17T09:30:29.969Z,37.85
2022-08-17T09:33:39.896Z,37.64
2022-08-17T09:36:52.223Z,37.02
2022-08-17T09:40:09.607Z,36.43
2022-08-17T09:43:19.546Z,35.87
2022-08-17T09:46:25.929Z,35.50
2022-08-17T09:49:35.388Z,36.08
2022-08-17T09:52:38.206Z,34.81
2022-08-17T09:55:59.941Z,33.82
2022-08-17T09:59:38.176Z,34.07
2022-08-17T10:02:48.472Z,34.71
2022-08-17T10:06:00.451Z,34.97
2022-08-17T10:09:09.779Z,33.39
2022-08-17T10:12:31.183Z,33.51
2022-08-17T10:15:46.859Z,33.68
2022-08-17T10:18:49.655Z,34.10
2022-08-17T10:22:32.697Z,32.90
2022-08-17T10:26:01.879Z,33.10
2022-08-17T10:29:12.548Z,32.41
2022-08-17T10:32:31.439Z,31.89
2022-08-17T10:36:07.466Z,31.22
2022-08-17T10:39:35.709Z,31.70
2022-08-17T10:43:01.010Z,32.38
2022-08-17T10:46:30.681Z,31.11
2022-08-17T10:49:36.775Z,31.02
2022-08-17T10:52:42.743Z,29.43
2022-08-17T10:56:14.074Z,29.59
2022-08-17T15:17:45.149Z,22.33
2022-08-17T15:20:50.175Z,22.78
2022-08-17T15:23:52.727Z,22.22
2022-08-17T15:26:55.653Z,22.13
2022-08-17T15:29:59.174Z,22.91
2022-08-17T15:33:02.727Z,22.56
2022-08-17T15:36:07.780Z,22.53
2022-08-17T15:39:10.951Z,22.85
2022-08-17T15:42:13.671Z,22.68
2022-08-17T15:45:18.648Z,22.69
2022-08-17T15:48:21.183Z,22.23
2022-08-17T15:51:32.782Z,22.51
2022-08-17T15:54:36.090Z,23.81
2022-08-17T15:57:40.814Z,23.21
2022-08-17T16:00:53.095Z,22.74
2022-08-17T16:04:26.488Z,22.67
2022-08-17T16:07:32.219Z,22.87
2022-08-17T16:10:36.194Z,23.31
2022-08-17T16:13:39.776Z,23.16
2022-08-17T16:16:42.588Z,22.92
2022-08-17T16:19:45.496Z,23.03
2022-08-17T16:22:50.002Z,23.08
2022-08-17T16:25:54.379Z,22.78
2022-08-17T16:28:59.024Z,23.32
2022-08-17T16:32:14.126Z,23.17
2022-08-17T16:35:18.415Z,23.06
2022-08-17T16:38:21.712Z,23.81
2022-08-17T16:41:43.289Z,24.77
2022-08-17T16:44:46.037Z,24.24
2022-08-17T16:47:50.114Z,24.85
2022-08-17T16:51:03.384Z,25.04
2022-08-17T16:54:08.305Z,24.38
2022-08-17T16:57:11.714Z,24.81
2022-08-17T17:00:16.187Z,25.98
2022-08-17T17:03:22.430Z,25.69
2022-08-17T17:06:41.146Z,25.50
2022-08-17T17:09:47.579Z,26.00
2022-08-17T17:13:03.989Z,26.60
2022-08-17T17:16:39.166Z,27.22
2022-08-17T17:19:51.742Z,28.74
2022-08-17T17:23:24.312Z,29.31
2022-08-17T17:26:48.443Z,29.66
2022-08-17T17:30:20.902Z,30.29
2022-08-17T17:33:36.942Z,30.52
2022-08-17T17:36:43.439Z,30.22
2022-08-17T17:39:56.383Z,31.34
2022-08-17T17:43:14.547Z,30.91
2022-08-17T17:46:29.135Z,31.78
2022-08-17T17:49:39.962Z,32.55
2022-08-17T17:53:03.341Z,33.38
2022-08-17T17:56:21.052Z,32.71
2022-08-17T18:00:03.434Z,34.10
2022-08-17T18:03:30.488Z,34.83
2022-08-17T18:07:02.150Z,35.72
2022-08-17T18:10:29.228Z,35.82
2022-08-17T18:14:01.316Z,36.88
2022-08-17T18:17:04.214Z,37.26
2022-08-17T18:20:07.500Z,38.82
2022-08-17T18:23:10.803Z,39.22
2022-08-17T18:26:13.793Z,39.77
2022-08-17T18:29:21.638Z,40.27
2022-08-17T18:32:40.059Z,39.73
2022-08-17T18:35:58.482Z,40.41
2022-08-17T18:39:23.791Z,40.49
2022-08-17T18:42:28.510Z,41.92
2022-08-17T18:45:41.046Z,42.29
2022-08-17T18:49:18.442Z,42.78
2022-08-17T18:52:24.516Z,43.26
2022-08-17T18:55:30.052Z,43.52
2022-08-17T18:58:33.255Z,43.89
2022-08-17T19:02:00.015Z,44.65
2022-08-17T19:05:13.550Z,45.59
2022-08-17T19:08:28.462Z,46.01
2022-08-17T19:11:34.999Z,46.71
2022-08-17T19:14:37.560Z,46.94
2022-08-17T19:17:46.666Z,48.10
2022-08-17T19:21:16.454Z,48.14
2022-08-17T19:24:22.160Z,48.89
2022-08-17T19:27:41.650Z,49.88
2022-08-17T19:30:45.130Z,49.08
2022-08-17T19:33:48.344Z,49.41
2022-08-17T19:37:00.446Z,49.95
2022-08-17T19:40:51.830Z,49.65
2022-08-17T19:44:07.066Z,50.69
2022-08-17T19:47:54.360Z,50.97
2022-08-17T19:51:02.838Z,51.55
2022-08-17T19:54:23.331Z,51.47
2022-08-17T19:57:34.551Z,51.89
2022-08-17T20:00:42.585Z,52.07
2022-08-17T20:03:51.773Z,52.21
2022-08-17T20:07:06.919Z,53.29
2022-08-17T20:10:17.748Z,53.42
2022-08-17T20:13:45.890Z,53.49
2022-08-17T20:16:48.971Z,53.70
2022-08-17T20:19:59.124Z,54.29
2022-08-17T20:23:12.130Z,54.15
2022-08-17T20:26:28.780Z,54.69
2022-08-17T20:29:40.319Z,54.75
2022-08-17T20:32:49.551Z,54.48
2022-08-17T20:36:13.488Z,54.47
2022-08-17T20:39:33.623Z,54.24
2022-08-17T20:42:37.775Z,54.52
2022-08-17T20:45:49.813Z,54.37
2022-08-17T20:49:01.002Z,54.87
2022-08-17T20:52:07.858Z,54.86
2022-08-17T20:55:51.585Z,54.75
2022-08-17T20:58:55.642Z,55.16
2022-08-17T21:02:13.833Z,55.91
2022-08-17T21:05:34.281Z,55.82
2022-08-17T21:08:53.245Z,56.13
2022-08-17T21:12:04.480Z,56.31
2022-08-17T21:15:31.055Z,56.88
2022-08-17T21:18:52.732Z,57.38
2022-08-17T21:22:11.395Z,58.06
2022-08-17T21:25:32.685Z,58.71
2022-08-17T21:29:00.076Z,59.17
2022-08-17T21:32:04.365Z,59.63
2022-08-17T21:35:11.241Z,59.77
2022-08-17T21:38:17.346Z,59.98
2022-08-17T21:41:27.425Z,59.80
2022-08-17T21:44:38.204Z,59.96
2022-08-17T21:47:43.694Z,60.40
2022-08-17T21:51:14.537Z,60.58
2022-08-17T21:54:29.880Z,61.24
2022-08-17T21:57:35.053Z,61.13
2022-08-17T22:00:41.006Z,61.37
2022-08-17T22:03:45.603Z,61.11
2022-08-17T22:06:52.683Z,61.53
2022-08-17T22:10:00.341Z,61.52
2022-08-17T22:13:22.190Z,61.50
2022-08-17T22:16:28.780Z,61.22
2022-08-17T22:19:34.808Z,61.06
2022-08-17T22:23:25.526Z,61.78
2022-08-17T22:27:02.344Z,61.69
2022-08-17T22:30:18.271Z,62.44
2022-08-17T22:33:33.400Z,62.02
2022-08-17T22:36:41.851Z,62.04
2022-08-17T22:39:44.804Z,62.15
2022-08-17T22:42:47.701Z,61.91
2022-08-17T22:45:53.300Z,61.66
2022-08-17T22:48:58.751Z,62.43
2022-08-17T22:52:04.615Z,63.04
2022-08-17T22:55:36.458Z,63.44
2022-08-17T22:59:17.553Z,63.43
2022-08-17T23:02:24.182Z,63.31
2022-08-17T23:05:26.909Z,63.25
2022-08-17T23:08:30.777Z,63.87
2022-08-17T23:11:49.380Z,63.94
2022-08-17T23:15:00.813Z,64.56
2022-08-17T23:18:04.799Z,64.63
2022-08-17T23:21:07.815Z,65.17
2022-08-17T23:24:11.909Z,65.36
2022-08-17T23:27:14.749Z,65.48
2022-08-17T23:30:17.953Z,65.70
2022-08-17T23:33:30.035Z,65.59
2022-08-17T23:36:32.568Z,66.55
2022-08-17T23:39:36.363Z,66.32
2022-08-17T23:42:43.371Z,66.83
2022-08-17T23:45:49.290Z,66.94
2022-08-17T23:48:53.544Z,67.29
2022-08-17T23:51:56.664Z,67.27
2022-08-17T23:54:59.431Z,67.45
2022-08-17T23:58:06.270Z,67.76
